createdAt,value
2023-04-18T00:00:13.852Z,187.32
2023-04-18T00:01:13.887Z,187.82
2023-04-18T00:02:13.957Z,188.12
2023-04-18T00:03:14.134Z,190.58
2023-04-18T00:04:14.460Z,189.14
2023-04-18T00:05:14.210Z,189.05
2023-04-18T00:06:14.076Z,189.61
2023-04-18T00:07:14.066Z,190.12
2023-04-18T00:08:14.033Z,189.63
2023-04-18T00:09:14.178Z,188.08
2023-04-18T00:10:14.104Z,189.43
2023-04-18T00:11:14.131Z,188.92
2023-04-18T00:12:14.162Z,189.08
2023-04-18T00:13:14.186Z,188.83
2023-04-18T00:14:14.385Z,188.50
2023-04-18T00:15:14.244Z,187.21
2023-04-18T00:16:14.368Z,188.75
2023-04-18T00:17:14.342Z,188.74
2023-04-18T00:18:14.336Z,188.33
2023-04-18T00:19:14.376Z,188.38
2023-04-18T00:20:14.383Z,187.43
2023-04-18T00:21:14.437Z,188.17
2023-04-18T00:22:14.443Z,187.52
2023-04-18T00:23:14.486Z,186.32
2023-04-18T00:24:14.719Z,187.43
2023-04-18T00:25:14.522Z,185.90
2023-04-18T00:26:14.565Z,188.48
2023-04-18T00:27:14.597Z,186.79
2023-04-18T00:28:14.620Z,188.06
2023-04-18T00:29:14.624Z,189.10
2023-04-18T00:30:14.667Z,188.05
2023-04-18T00:31:14.701Z,186.69
2023-04-18T00:32:14.733Z,188.18
2023-04-18T00:33:14.743Z,186.23
2023-04-18T00:34:15.042Z,186.56
2023-04-18T00:35:14.794Z,187.35
2023-04-18T00:36:14.827Z,187.71
2023-04-18T00:37:14.848Z,187.25
2023-04-18T00:38:14.899Z,186.44
2023-04-18T00:39:14.924Z,185.42
2023-04-18T00:40:14.982Z,186.69
2023-04-18T00:41:14.951Z,187.01
2023-04-18T00:42:14.993Z,187.04
2023-04-18T00:43:15.036Z,186.98
2023-04-18T00:44:15.924Z,186.47
2023-04-18T00:45:15.083Z,187.22
2023-04-18T00:46:15.143Z,185.00
2023-04-18T00:47:15.109Z,186.63
2023-04-18T00:48:15.171Z,186.09
2023-04-18T00:49:15.171Z,185.76
2023-04-18T00:50:15.215Z,188.57
2023-04-18T00:51:15.227Z,186.34
2023-04-18T00:52:15.239Z,187.62
2023-04-18T00:53:15.273Z,186.15
2023-04-18T00:54:15.615Z,186.72
2023-04-18T00:55:15.308Z,186.17
2023-04-18T00:56:15.359Z,185.33
2023-04-18T00:57:15.419Z,187.14
2023-04-18T00:58:15.418Z,185.28
2023-04-18T00:59:15.449Z,185.02
2023-04-18T01:00:15.455Z,186.17
2023-04-18T01:01:15.533Z,185.72
2023-04-18T01:02:15.610Z,185.28
2023-04-18T01:03:15.691Z,186.43
2023-04-18T01:04:15.965Z,184.12
2023-04-18T01:05:15.636Z,183.57
2023-04-18T01:06:15.664Z,182.43
2023-04-18T01:07:15.656Z,184.34
2023-04-18T01:08:15.701Z,182.79
2023-04-18T01:09:15.716Z,181.79
2023-04-18T01:10:15.788Z,182.63
2023-04-18T01:11:15.767Z,184.28
2023-04-18T01:12:15.821Z,182.23
2023-04-18T01:13:15.868Z,182.93
2023-04-18T01:14:15.877Z,182.80
2023-04-18T01:15:15.894Z,182.94
2023-04-18T01:16:15.969Z,184.13
2023-04-18T01:17:15.991Z,184.66
2023-04-18T01:18:16.001Z,184.18
2023-04-18T01:19:16.023Z,183.59
2023-04-18T01:20:16.083Z,182.86
2023-04-18T01:21:16.149Z,182.96
2023-04-18T01:22:16.128Z,181.15
2023-04-18T01:23:16.157Z,181.25
2023-04-18T01:24:16.436Z,180.98
2023-04-18T01:25:16.222Z,182.99
2023-04-18T01:26:16.270Z,182.82
2023-04-18T01:27:16.309Z,181.59
2023-04-18T01:28:16.316Z,182.41
2023-04-18T01:29:16.387Z,180.68
2023-04-18T01:30:16.383Z,181.79
2023-04-18T01:31:16.446Z,182.08
2023-04-18T01:32:16.528Z,181.23
2023-04-18T01:33:16.493Z,181.66
2023-04-18T01:34:16.499Z,179.06
2023-04-18T01:35:16.524Z,179.85
2023-04-18T01:36:16.570Z,178.35
2023-04-18T01:37:16.622Z,178.75
2023-04-18T01:38:16.629Z,179.62
2023-04-18T01:39:16.637Z,179.93
2023-04-18T01:40:16.668Z,179.56
2023-04-18T01:41:16.718Z,180.88
2023-04-18T01:42:16.765Z,178.96
2023-04-18T01:43:16.794Z,178.76
2023-04-18T01:44:16.828Z,179.61
2023-04-18T01:45:16.848Z,178.00
2023-04-18T01:46:16.918Z,178.40
2023-04-18T01:47:16.937Z,175.99
2023-04-18T01:48:16.956Z,174.89
2023-04-18T01:49:17.002Z,174.88
2023-04-18T01:50:17.035Z,174.70
2023-04-18T01:51:17.111Z,174.42
2023-04-18T01:52:17.071Z,176.00
2023-04-18T01:53:17.104Z,174.42
2023-04-18T01:54:17.153Z,173.06
2023-04-18T01:55:17.157Z,174.90
2023-04-18T01:56:17.180Z,174.21
2023-04-18T01:57:17.254Z,175.68
2023-04-18T01:58:17.248Z,173.58
2023-04-18T01:59:17.287Z,173.54
2023-04-18T02:00:17.341Z,171.17
2023-04-18T02:01:17.350Z,174.22
2023-04-18T02:02:17.384Z,175.81
2023-04-18T02:03:17.672Z,177.85
2023-04-18T02:04:17.578Z,180.05
2023-04-18T02:05:17.477Z,179.66
2023-04-18T02:06:17.486Z,179.38
2023-04-18T02:07:17.533Z,179.00
2023-04-18T02:08:17.551Z,179.15
2023-04-18T02:09:17.583Z,179.93
2023-04-18T02:10:17.616Z,179.72
2023-04-18T02:11:17.634Z,180.33
2023-04-18T02:12:17.631Z,178.18
2023-04-18T02:13:17.644Z,180.12
2023-04-18T02:14:17.637Z,179.66
2023-04-18T02:15:17.665Z,180.35
2023-04-18T02:16:18.330Z,178.64
2023-04-18T02:17:17.698Z,179.16
2023-04-18T02:18:17.667Z,178.29
2023-04-18T02:19:17.681Z,178.97
2023-04-18T02:20:17.688Z,175.86
2023-04-18T02:21:17.679Z,177.11
2023-04-18T02:22:17.660Z,177.96
2023-04-18T02:23:17.679Z,178.33
2023-04-18T02:24:17.699Z,177.79
2023-04-18T02:25:17.689Z,174.72
2023-04-18T02:26:17.712Z,175.50
2023-04-18T02:27:17.755Z,175.31
2023-04-18T02:28:17.842Z,175.68
2023-04-18T02:29:17.821Z,171.32
2023-04-18T02:30:17.866Z,173.13
2023-04-18T02:31:18.008Z,172.45
2023-04-18T02:32:18.001Z,172.72
2023-04-18T02:33:18.060Z,170.35
2023-04-18T02:34:18.141Z,171.57
2023-04-18T02:35:18.205Z,171.86
2023-04-18T02:36:18.256Z,170.52
2023-04-18T02:37:18.308Z,169.54
2023-04-18T02:38:18.333Z,168.99
2023-04-18T02:39:18.411Z,169.09
2023-04-18T02:40:18.473Z,169.23
2023-04-18T02:41:18.574Z,170.07
2023-04-18T02:42:18.606Z,171.52
2023-04-18T02:43:18.728Z,172.29
2023-04-18T02:44:18.681Z,168.28
2023-04-18T02:45:18.772Z,168.52
2023-04-18T02:46:18.858Z,169.33
2023-04-18T02:47:18.877Z,167.80
2023-04-18T02:48:18.925Z,166.50
2023-04-18T02:49:18.967Z,167.08
2023-04-18T02:50:18.993Z,166.19
2023-04-18T02:51:19.079Z,165.63
2023-04-18T02:52:19.189Z,167.13
2023-04-18T02:53:19.155Z,166.12
2023-04-18T02:54:19.197Z,165.54
2023-04-18T02:55:19.259Z,165.87
2023-04-18T02:56:19.306Z,166.26
2023-04-18T02:57:19.335Z,167.09
2023-04-18T02:58:19.383Z,165.81
2023-04-18T02:59:19.407Z,166.21
2023-04-18T03:00:19.455Z,166.28
2023-04-18T03:01:19.522Z,165.93
2023-04-18T03:02:19.619Z,165.53
2023-04-18T03:03:19.717Z,166.74
2023-04-18T03:04:19.659Z,166.00
2023-04-18T03:05:19.625Z,165.69
2023-04-18T03:06:19.685Z,164.55
2023-04-18T03:07:19.734Z,164.70
2023-04-18T03:08:19.782Z,165.03
2023-04-18T03:09:19.783Z,165.29
2023-04-18T03:10:19.828Z,165.75
2023-04-18T03:11:19.857Z,164.55
2023-04-18T03:12:19.907Z,164.09
2023-04-18T03:13:19.933Z,164.71
2023-04-18T03:14:19.984Z,164.57
2023-04-18T03:15:19.992Z,165.33
2023-04-18T03:16:20.069Z,163.52
2023-04-18T03:17:20.083Z,162.54
2023-04-18T03:18:20.081Z,164.75
2023-04-18T03:19:20.103Z,164.01
2023-04-18T03:20:20.137Z,163.98
2023-04-18T03:21:20.159Z,164.79
2023-04-18T03:22:20.244Z,164.20
2023-04-18T03:23:20.240Z,164.12
2023-04-18T03:24:20.252Z,164.77
2023-04-18T03:25:20.314Z,164.75
2023-04-18T03:26:20.351Z,163.69
2023-04-18T03:27:20.381Z,163.76
2023-04-18T03:28:20.373Z,162.43
2023-04-18T03:29:20.422Z,163.84
2023-04-18T03:30:20.475Z,163.02
2023-04-18T03:31:20.552Z,163.87
2023-04-18T03:32:20.532Z,162.32
2023-04-18T03:33:20.567Z,162.77
2023-04-18T03:34:20.540Z,163.10
2023-04-18T03:35:20.591Z,163.91
2023-04-18T03:36:20.610Z,162.73
2023-04-18T03:37:20.656Z,162.87
2023-04-18T03:38:20.653Z,163.51
2023-04-18T03:39:20.683Z,162.74
2023-04-18T03:40:20.702Z,162.98
2023-04-18T03:41:20.717Z,162.97
2023-04-18T03:42:20.759Z,162.45
2023-04-18T03:43:20.790Z,161.84
2023-04-18T03:44:20.762Z,162.77
2023-04-18T03:45:20.803Z,161.45
2023-04-18T03:46:20.814Z,160.80
2023-04-18T03:47:20.887Z,161.99
2023-04-18T03:48:20.863Z,161.78
2023-04-18T03:49:20.876Z,161.45
2023-04-18T03:50:20.911Z,161.55
2023-04-18T03:51:20.917Z,162.62
2023-04-18T03:52:21.332Z,161.97
2023-04-18T03:53:21.267Z,163.60
2023-04-18T03:54:20.983Z,162.90
2023-04-18T03:55:21.002Z,161.51
2023-04-18T03:56:21.003Z,163.82
2023-04-18T03:57:20.994Z,161.24
2023-04-18T03:58:22.570Z,161.79
2023-04-18T03:59:21.014Z,162.53
2023-04-18T04:00:21.038Z,163.01
2023-04-18T04:01:21.050Z,162.98
2023-04-18T04:02:21.171Z,163.39
2023-04-18T04:03:21.126Z,161.96
2023-04-18T04:04:21.159Z,162.77
2023-04-18T04:05:21.072Z,163.79
2023-04-18T04:06:21.093Z,162.18
2023-04-18T04:07:21.100Z,162.12
2023-04-18T04:08:21.092Z,161.34
2023-04-18T04:09:21.120Z,162.59
2023-04-18T04:10:21.127Z,163.00
2023-04-18T04:11:21.116Z,163.54
2023-04-18T04:12:21.137Z,161.97
2023-04-18T04:13:21.183Z,163.10
2023-04-18T04:14:21.155Z,163.21
2023-04-18T04:15:21.187Z,163.90
2023-04-18T04:16:21.252Z,162.76
2023-04-18T04:17:21.196Z,163.64
2023-04-18T04:18:21.216Z,163.52
2023-04-18T04:19:21.208Z,164.57
2023-04-18T04:20:21.194Z,165.59
2023-04-18T04:21:21.318Z,164.11
2023-04-18T04:22:21.233Z,163.89
2023-04-18T04:23:21.253Z,163.77
2023-04-18T04:24:21.220Z,164.51
2023-04-18T04:25:21.257Z,164.89
2023-04-18T04:26:21.236Z,164.33
2023-04-18T04:27:21.286Z,165.79
2023-04-18T04:28:21.279Z,165.52
2023-04-18T04:29:21.294Z,165.06
2023-04-18T04:30:21.300Z,166.04
2023-04-18T04:31:21.324Z,167.28
2023-04-18T04:32:21.279Z,166.06
2023-04-18T04:33:21.334Z,167.04
2023-04-18T04:34:21.300Z,166.56
2023-04-18T04:35:21.324Z,167.69
2023-04-18T04:36:21.336Z,166.23
2023-04-18T04:37:21.336Z,166.80
2023-04-18T04:38:21.345Z,165.91
2023-04-18T04:39:21.350Z,167.59
2023-04-18T04:40:21.334Z,167.03
2023-04-18T04:41:21.376Z,167.23
2023-04-18T04:42:21.379Z,167.31
2023-04-18T04:43:21.389Z,165.95
2023-04-18T04:44:21.453Z,166.19
2023-04-18T04:45:21.391Z,165.41
2023-04-18T04:46:21.460Z,164.94
2023-04-18T04:47:21.451Z,164.86
2023-04-18T04:48:21.409Z,164.99
2023-04-18T04:49:21.408Z,164.28
2023-04-18T04:50:21.476Z,163.32
2023-04-18T04:51:21.457Z,164.32
2023-04-18T04:52:21.495Z,164.09
2023-04-18T04:53:21.478Z,163.40
2023-04-18T04:54:21.528Z,164.34
2023-04-18T04:55:21.478Z,163.53
2023-04-18T04:56:21.475Z,164.60
2023-04-18T04:57:21.481Z,164.44
2023-04-18T04:58:21.552Z,163.65
2023-04-18T04:59:21.535Z,163.72
2023-04-18T05:00:21.525Z,164.32
2023-04-18T05:01:28.606Z,164.55
2023-04-18T05:02:21.622Z,164.72
2023-04-18T05:03:21.654Z,165.05
2023-04-18T05:04:21.657Z,165.03
2023-04-18T05:05:21.547Z,165.24
2023-04-18T05:06:21.530Z,164.66
2023-04-18T05:07:21.533Z,165.42
2023-04-18T05:08:21.525Z,165.22
2023-04-18T05:09:21.523Z,165.17
2023-04-18T05:10:21.512Z,165.61
2023-04-18T05:11:21.502Z,166.16
2023-04-18T05:12:21.496Z,165.33
2023-04-18T05:13:21.491Z,165.83
2023-04-18T05:14:21.466Z,164.92
2023-04-18T05:15:21.499Z,166.22
2023-04-18T05:16:21.520Z,166.92
2023-04-18T05:17:21.574Z,165.55
2023-04-18T05:18:21.455Z,166.44
2023-04-18T05:19:21.438Z,166.74
2023-04-18T05:20:21.486Z,166.56
2023-04-18T05:21:21.433Z,166.51
2023-04-18T05:22:21.437Z,167.22
2023-04-18T05:23:21.418Z,165.98
2023-04-18T05:24:21.421Z,167.52
2023-04-18T05:25:21.414Z,166.27
2023-04-18T05:26:21.386Z,166.82
2023-04-18T05:27:21.424Z,167.32
2023-04-18T05:28:21.405Z,166.86
2023-04-18T05:29:21.373Z,167.13
2023-04-18T05:30:21.401Z,166.29
2023-04-18T05:31:21.441Z,167.54
2023-04-18T05:32:21.399Z,167.86
2023-04-18T05:33:21.407Z,167.62
2023-04-18T05:34:21.335Z,172.64
2023-04-18T05:35:21.349Z,174.36
2023-04-18T05:36:21.329Z,178.98
2023-04-18T05:37:21.329Z,180.50
2023-04-18T05:38:21.404Z,185.28
2023-04-18T05:39:21.299Z,186.18
2023-04-18T05:40:21.310Z,193.63
2023-04-18T05:41:21.363Z,196.47
2023-04-18T05:42:21.316Z,200.09
2023-04-18T05:43:21.282Z,204.63
2023-04-18T05:44:21.570Z,213.04
2023-04-18T05:45:21.297Z,219.73
2023-04-18T05:46:28.282Z,223.42
2023-04-18T05:47:21.404Z,223.70
2023-04-18T05:48:21.228Z,224.85
2023-04-18T05:49:21.220Z,227.46
2023-04-18T05:50:21.290Z,232.58
2023-04-18T05:51:21.244Z,241.22
2023-04-18T05:52:21.232Z,239.78
2023-04-18T05:53:21.441Z,240.40
2023-04-18T05:54:21.196Z,242.51
2023-04-18T05:55:21.206Z,242.79
2023-04-18T05:56:21.221Z,246.32
2023-04-18T05:57:21.196Z,246.21
2023-04-18T05:58:21.444Z,242.80
2023-04-18T05:59:21.180Z,242.88
2023-04-18T06:00:21.194Z,243.00
2023-04-18T06:01:21.206Z,243.39
2023-04-18T06:02:21.403Z,243.93
2023-04-18T06:03:21.281Z,246.15
2023-04-18T06:04:21.614Z,247.80
2023-04-18T06:05:21.423Z,248.57
2023-04-18T06:06:21.124Z,247.53
2023-04-18T06:07:21.141Z,249.50
2023-04-18T06:08:21.152Z,248.16
2023-04-18T06:09:21.250Z,250.00
2023-04-18T06:10:21.238Z,249.17
2023-04-18T06:11:21.297Z,247.95
2023-04-18T06:12:21.330Z,249.89
2023-04-18T06:13:21.501Z,249.37
2023-04-18T06:14:21.385Z,249.93
2023-04-18T06:15:21.427Z,250.00
2023-04-18T06:16:21.512Z,250.00
2023-04-18T06:17:21.552Z,250.00
2023-04-18T06:18:21.573Z,250.00
2023-04-18T06:19:21.993Z,250.00
2023-04-18T06:20:21.669Z,254.28
2023-04-18T06:21:21.701Z,256.17
2023-04-18T06:22:21.751Z,255.93
2023-04-18T06:23:21.829Z,247.54
2023-04-18T06:24:21.873Z,245.42
2023-04-18T06:25:21.910Z,242.09
2023-04-18T06:26:22.004Z,239.73
2023-04-18T06:27:31.029Z,239.57
2023-04-18T06:28:23.028Z,239.64
2023-04-18T06:29:21.987Z,240.02
2023-04-18T06:30:22.227Z,240.09
2023-04-18T06:31:22.033Z,241.39
2023-04-18T06:32:22.007Z,240.20
2023-04-18T06:33:21.946Z,239.95
2023-04-18T06:34:21.956Z,235.54
2023-04-18T06:35:21.939Z,235.84
2023-04-18T06:36:21.939Z,235.88
2023-04-18T06:37:21.968Z,236.77
2023-04-18T06:38:22.072Z,231.82
2023-04-18T06:39:22.471Z,231.08
2023-04-18T06:40:22.147Z,232.87
2023-04-18T06:41:22.125Z,230.76
2023-04-18T06:42:22.654Z,232.32
2023-04-18T06:43:22.127Z,228.38
2023-04-18T06:44:22.145Z,225.80
2023-04-18T06:45:22.157Z,224.24
2023-04-18T06:46:22.519Z,228.27
2023-04-18T06:47:22.309Z,227.81
2023-04-18T06:48:22.126Z,225.49
2023-04-18T06:49:26.503Z,227.81
2023-04-18T06:50:22.158Z,227.82
2023-04-18T06:51:22.113Z,225.69
2023-04-18T06:52:22.096Z,227.05
2023-04-18T06:53:22.083Z,227.22
2023-04-18T06:54:22.121Z,230.11
2023-04-18T06:55:22.975Z,230.58
2023-04-18T06:56:22.136Z,231.81
2023-04-18T06:57:22.088Z,236.17
2023-04-18T06:58:22.053Z,236.86
2023-04-18T06:59:22.062Z,235.80
2023-04-18T07:00:22.062Z,237.45
2023-04-18T07:01:22.073Z,237.15
2023-04-18T07:02:22.077Z,236.58
2023-04-18T07:03:22.140Z,239.87
2023-04-18T07:04:22.181Z,239.33
2023-04-18T07:05:21.998Z,237.17
2023-04-18T07:06:22.017Z,235.14
2023-04-18T07:07:21.998Z,233.40
2023-04-18T07:08:22.034Z,234.18
2023-04-18T07:09:22.451Z,238.53
2023-04-18T07:10:22.036Z,234.65
2023-04-18T07:11:22.047Z,232.73
2023-04-18T07:12:21.956Z,234.48
2023-04-18T07:13:21.963Z,230.75
2023-04-18T07:14:21.957Z,233.79
2023-04-18T07:15:21.947Z,235.96
2023-04-18T07:16:22.072Z,239.27
2023-04-18T07:17:21.971Z,241.51
2023-04-18T07:18:34.330Z,242.56
2023-04-18T07:19:22.916Z,242.70
2023-04-18T07:20:21.898Z,243.13
2023-04-18T07:21:21.890Z,241.76
2023-04-18T07:22:21.890Z,241.17
2023-04-18T07:23:21.905Z,244.97
2023-04-18T07:24:21.860Z,243.81
2023-04-18T07:25:21.877Z,241.12
2023-04-18T07:26:21.861Z,241.24
2023-04-18T07:27:21.850Z,239.59
2023-04-18T07:28:21.823Z,237.10
2023-04-18T07:29:21.852Z,205.57
2023-04-18T07:30:21.913Z,183.91
2023-04-18T07:31:21.939Z,174.21
2023-04-18T07:32:21.972Z,169.63
2023-04-18T07:33:21.977Z,191.82
2023-04-18T07:34:23.024Z,234.79
2023-04-18T07:35:22.079Z,283.62
2023-04-18T07:36:22.095Z,263.84
2023-04-18T07:37:22.155Z,234.05
2023-04-18T07:38:22.167Z,210.83
2023-04-18T07:39:22.527Z,196.12
2023-04-18T07:40:22.258Z,194.72
2023-04-18T07:41:22.320Z,188.12
2023-04-18T07:42:22.335Z,173.61
2023-04-18T07:43:22.416Z,171.89
2023-04-18T07:44:22.386Z,173.89
2023-04-18T07:45:22.409Z,178.70
2023-04-18T07:46:22.536Z,176.98
2023-04-18T07:47:22.644Z,178.24
2023-04-18T07:48:22.548Z,167.84
2023-04-18T07:49:22.496Z,163.18
2023-04-18T07:50:22.520Z,155.25
2023-04-18T07:51:22.574Z,155.38
2023-04-18T07:52:22.591Z,160.91
2023-04-18T07:53:22.593Z,170.00
2023-04-18T07:54:22.629Z,170.38
2023-04-18T07:55:22.713Z,173.09
2023-04-18T07:56:22.702Z,178.61
2023-04-18T07:57:22.710Z,180.68
2023-04-18T07:58:22.726Z,183.60
2023-04-18T07:59:22.865Z,185.70
2023-04-18T08:00:22.871Z,187.99
2023-04-18T08:01:22.880Z,190.93
2023-04-18T08:02:22.994Z,193.80
2023-04-18T08:03:23.136Z,195.87
2023-04-18T08:04:23.250Z,199.01
2023-04-18T08:05:22.979Z,203.95
2023-04-18T08:06:23.025Z,206.65
2023-04-18T08:07:23.055Z,204.53
2023-04-18T08:08:23.101Z,208.81
2023-04-18T08:09:23.148Z,212.88
2023-04-18T08:10:23.918Z,216.75
2023-04-18T08:11:23.114Z,219.10
2023-04-18T08:12:23.153Z,221.42
2023-04-18T08:13:23.166Z,226.95
2023-04-18T08:14:23.150Z,230.86
2023-04-18T08:15:23.276Z,231.08
2023-04-18T08:16:23.293Z,233.38
2023-04-18T08:17:23.286Z,236.54
2023-04-18T08:18:23.344Z,240.48
2023-04-18T08:19:23.455Z,241.48
2023-04-18T08:20:23.480Z,243.57
2023-04-18T08:21:23.485Z,246.15
2023-04-18T08:22:23.506Z,247.45
2023-04-18T08:23:23.545Z,250.00
2023-04-18T08:24:23.586Z,249.84
2023-04-18T08:25:23.586Z,249.67
2023-04-18T08:26:23.615Z,249.87
2023-04-18T08:27:23.681Z,249.35
2023-04-18T08:28:23.662Z,250.00
2023-04-18T08:29:23.997Z,250.00
2023-04-18T08:30:23.690Z,249.20
2023-04-18T08:31:23.722Z,250.00
2023-04-18T08:32:23.738Z,248.05
2023-04-18T08:33:23.739Z,236.79
2023-04-18T08:34:24.016Z,225.07
2023-04-18T08:35:23.756Z,225.29
2023-04-18T08:36:23.806Z,228.37
2023-04-18T08:37:23.831Z,222.74
2023-04-18T08:38:23.877Z,212.45
2023-04-18T08:39:25.315Z,228.99
2023-04-18T08:40:24.027Z,251.81
2023-04-18T08:41:24.013Z,312.09
2023-04-18T08:42:24.032Z,291.76
2023-04-18T08:43:24.079Z,272.40
2023-04-18T08:44:24.132Z,261.90
2023-04-18T08:45:24.170Z,241.62
2023-04-18T08:46:24.220Z,231.00
2023-04-18T08:47:24.294Z,228.75
2023-04-18T08:48:24.296Z,227.90
2023-04-18T08:49:24.528Z,227.16
2023-04-18T08:50:24.556Z,196.42
2023-04-18T08:51:24.405Z,161.74
2023-04-18T08:52:24.468Z,133.52
2023-04-18T08:53:24.495Z,128.42
2023-04-18T08:54:27.257Z,114.32
2023-04-18T08:55:24.531Z,102.40
2023-04-18T08:56:24.518Z,95.51
2023-04-18T08:57:24.518Z,99.60
2023-04-18T08:58:24.533Z,98.05
2023-04-18T08:59:24.558Z,71.50
2023-04-18T09:00:24.519Z,67.00
2023-04-18T09:01:24.515Z,66.81
2023-04-18T09:02:24.543Z,61.93
2023-04-18T09:03:24.497Z,53.01
2023-04-18T09:04:24.482Z,55.38
2023-04-18T09:05:24.445Z,64.45
2023-04-18T09:06:25.536Z,67.03
2023-04-18T09:07:24.450Z,57.50
2023-04-18T09:08:24.563Z,57.21
2023-04-18T09:09:24.441Z,55.40
2023-04-18T09:10:24.587Z,64.02
2023-04-18T09:11:24.418Z,60.11
2023-04-18T09:12:24.466Z,63.90
2023-04-18T09:13:24.636Z,73.23
2023-04-18T09:14:24.407Z,77.38
2023-04-18T09:15:24.436Z,82.31
2023-04-18T09:16:24.400Z,82.29
2023-04-18T09:17:24.362Z,87.82
2023-04-18T09:18:24.369Z,92.72
2023-04-18T09:19:24.371Z,112.40
2023-04-18T09:20:24.431Z,111.55
2023-04-18T09:21:24.338Z,114.19
2023-04-18T09:22:24.342Z,122.96
2023-04-18T09:23:24.320Z,127.95
2023-04-18T09:24:24.559Z,119.43
2023-04-18T09:25:24.575Z,130.48
2023-04-18T09:26:24.315Z,136.16
2023-04-18T09:27:24.341Z,140.70
2023-04-18T09:28:24.419Z,142.44
2023-04-18T09:29:24.359Z,145.41
2023-04-18T09:30:24.423Z,144.76
2023-04-18T09:31:24.449Z,150.78
2023-04-18T09:32:24.654Z,153.32
2023-04-18T09:33:24.567Z,154.89
2023-04-18T09:34:24.633Z,156.59
2023-04-18T09:35:25.061Z,152.28
2023-04-18T09:36:24.742Z,115.25
2023-04-18T09:37:24.736Z,89.96
2023-04-18T09:38:24.790Z,83.37
2023-04-18T09:39:24.748Z,90.96
2023-04-18T09:40:25.045Z,96.46
2023-04-18T09:41:24.786Z,107.00
2023-04-18T09:42:26.749Z,113.29
2023-04-18T09:43:24.741Z,124.73
2023-04-18T09:44:24.762Z,127.28
2023-04-18T09:45:25.541Z,135.37
2023-04-18T09:46:24.724Z,122.38
2023-04-18T09:47:24.741Z,105.83
2023-04-18T09:48:24.714Z,98.74
2023-04-18T09:49:24.692Z,99.38
2023-04-18T09:50:24.686Z,103.89
2023-04-18T09:51:24.702Z,110.46
2023-04-18T09:52:24.702Z,119.43
2023-04-18T09:53:24.662Z,127.33
2023-04-18T09:54:24.664Z,135.78
2023-04-18T09:55:24.681Z,141.26
2023-04-18T09:56:24.683Z,145.30
2023-04-18T09:57:24.633Z,148.43
2023-04-18T09:58:24.652Z,151.26
2023-04-18T09:59:24.654Z,154.39
2023-04-18T10:00:24.710Z,157.95
2023-04-18T10:01:24.663Z,160.38
2023-04-18T10:02:24.714Z,163.02
2023-04-18T10:03:24.628Z,165.26
2023-04-18T10:04:24.691Z,168.58
2023-04-18T10:05:24.664Z,169.70
2023-04-18T10:06:24.589Z,170.67
2023-04-18T10:07:24.658Z,174.23
2023-04-18T10:08:24.568Z,175.23
2023-04-18T10:09:24.564Z,171.13
2023-04-18T10:10:24.549Z,174.22
2023-04-18T10:11:24.537Z,175.95
2023-04-18T10:12:24.529Z,176.81
2023-04-18T10:13:24.546Z,175.91
2023-04-18T10:14:24.498Z,175.60
2023-04-18T10:15:24.592Z,177.81
2023-04-18T10:16:24.535Z,181.84
2023-04-18T10:17:24.505Z,179.97
2023-04-18T10:18:24.648Z,180.64
2023-04-18T10:19:24.497Z,160.73
2023-04-18T10:20:24.475Z,169.21
2023-04-18T10:21:24.491Z,176.78
2023-04-18T10:22:24.470Z,178.98
2023-04-18T10:23:25.973Z,178.05
2023-04-18T10:24:24.508Z,178.69
2023-04-18T10:25:25.075Z,177.86
2023-04-18T10:26:24.592Z,177.99
2023-04-18T10:27:24.627Z,178.64
2023-04-18T10:28:24.560Z,180.02
2023-04-18T10:29:24.572Z,179.94
2023-04-18T10:30:24.591Z,181.07
2023-04-18T10:31:24.641Z,181.43
2023-04-18T10:32:24.666Z,183.04
2023-04-18T10:33:30.400Z,185.61
2023-04-18T10:34:25.585Z,185.76
2023-04-18T10:35:25.046Z,186.54
2023-04-18T10:36:24.604Z,186.79
2023-04-18T10:37:24.586Z,192.44
2023-04-18T10:38:24.597Z,200.46
2023-04-18T10:39:24.579Z,203.96
2023-04-18T10:40:24.592Z,201.69
2023-04-18T10:41:25.091Z,198.03
2023-04-18T10:42:24.645Z,190.60
2023-04-18T10:43:24.689Z,179.92
2023-04-18T10:44:24.770Z,184.49
2023-04-18T10:45:24.808Z,184.81
2023-04-18T10:46:31.862Z,186.49
2023-04-18T10:47:25.953Z,186.67
2023-04-18T10:48:24.935Z,160.34
2023-04-18T10:49:27.007Z,114.69
2023-04-18T10:50:24.797Z,92.11
2023-04-18T10:51:24.878Z,62.57
2023-04-18T10:52:24.795Z,47.04
2023-04-18T10:53:24.828Z,41.85
2023-04-18T10:54:24.811Z,25.41
2023-04-18T10:55:24.827Z,36.81
2023-04-18T10:56:25.580Z,43.23
2023-04-18T10:57:25.562Z,46.65
2023-04-18T10:58:24.766Z,54.69
2023-04-18T10:59:24.781Z,67.63
2023-04-18T11:00:24.780Z,68.57
2023-04-18T11:01:24.874Z,63.65
2023-04-18T11:02:24.880Z,77.03
2023-04-18T11:03:24.834Z,85.96
2023-04-18T11:04:25.622Z,86.44
2023-04-18T11:05:24.847Z,93.96
2023-04-18T11:06:25.109Z,101.61
2023-04-18T11:07:24.716Z,110.09
2023-04-18T11:08:24.707Z,103.13
2023-04-18T11:09:24.706Z,64.27
2023-04-18T11:10:24.715Z,98.54
2023-04-18T11:11:25.108Z,99.99
2023-04-18T11:12:24.823Z,111.96
2023-04-18T11:13:24.666Z,116.60
2023-04-18T11:14:24.664Z,120.90
2023-04-18T11:15:24.678Z,122.95
2023-04-18T11:16:24.708Z,122.74
2023-04-18T11:17:24.714Z,124.39
2023-04-18T11:18:24.630Z,126.20
2023-04-18T11:19:24.644Z,126.89
2023-04-18T11:20:24.609Z,128.05
2023-04-18T11:21:24.616Z,131.32
2023-04-18T11:22:24.620Z,133.19
2023-04-18T11:23:24.645Z,132.65
2023-04-18T11:24:24.665Z,133.39
2023-04-18T11:25:24.580Z,131.99
2023-04-18T11:26:24.587Z,133.01
2023-04-18T11:27:24.566Z,133.69
2023-04-18T11:28:24.563Z,136.96
2023-04-18T11:29:24.520Z,136.04
2023-04-18T11:30:24.635Z,138.16
2023-04-18T11:31:24.618Z,142.30
2023-04-18T11:32:24.698Z,144.25
2023-04-18T11:33:24.558Z,144.56
2023-04-18T11:34:24.545Z,137.20
2023-04-18T11:35:24.588Z,122.93
2023-04-18T11:36:25.091Z,106.60
2023-04-18T11:37:24.680Z,104.69
2023-04-18T11:38:24.943Z,115.56
2023-04-18T11:39:25.187Z,120.19
2023-04-18T11:40:25.041Z,125.72
2023-04-18T11:41:25.093Z,128.68
2023-04-18T11:42:25.007Z,129.40
2023-04-18T11:43:25.121Z,129.91
2023-04-18T11:44:25.088Z,129.90
2023-04-18T11:45:25.125Z,127.40
2023-04-18T11:46:25.261Z,127.81
2023-04-18T11:47:25.278Z,128.11
2023-04-18T11:48:25.309Z,127.86
2023-04-18T11:49:25.342Z,128.51
2023-04-18T11:50:25.456Z,127.32
2023-04-18T11:51:25.481Z,124.46
2023-04-18T11:52:25.501Z,122.78
2023-04-18T11:53:25.579Z,122.89
2023-04-18T11:54:25.661Z,122.50
2023-04-18T11:55:25.704Z,119.10
2023-04-18T11:56:25.782Z,121.59
2023-04-18T11:57:25.831Z,123.07
2023-04-18T11:58:25.901Z,118.42
2023-04-18T11:59:25.951Z,116.53
2023-04-18T12:00:26.012Z,116.80
2023-04-18T12:01:26.052Z,112.75
2023-04-18T12:02:26.188Z,118.30
2023-04-18T12:03:26.276Z,118.73
2023-04-18T12:04:26.472Z,114.68
2023-04-18T12:05:26.534Z,115.21
2023-04-18T12:06:26.397Z,118.81
2023-04-18T12:07:26.372Z,118.93
2023-04-18T12:08:26.432Z,114.46
2023-04-18T12:09:26.480Z,114.30
2023-04-18T12:10:26.572Z,114.60
2023-04-18T12:11:26.604Z,115.29
2023-04-18T12:12:26.664Z,116.80
2023-04-18T12:13:26.751Z,118.12
2023-04-18T12:14:26.787Z,118.34
2023-04-18T12:15:26.892Z,112.81
2023-04-18T12:16:26.920Z,110.55
2023-04-18T12:17:26.995Z,110.78
2023-04-18T12:18:27.030Z,104.57
2023-04-18T12:19:27.084Z,105.09
2023-04-18T12:20:27.172Z,106.74
2023-04-18T12:21:27.229Z,109.62
2023-04-18T12:22:27.254Z,110.53
2023-04-18T12:23:27.334Z,110.14
2023-04-18T12:24:27.386Z,109.35
2023-04-18T12:25:27.847Z,105.57
2023-04-18T12:26:27.505Z,104.85
2023-04-18T12:27:27.545Z,103.80
2023-04-18T12:28:27.638Z,94.31
2023-04-18T12:29:27.706Z,83.94
2023-04-18T12:30:27.729Z,80.39